createdAt,value
2017-08-01T00:01:07.040Z,2.53
2017-08-01T00:03:35.106Z,3.17
2017-08-01T00:06:04.679Z,3.03
2017-08-01T00:08:33.539Z,3.20
2017-08-01T00:11:02.272Z,3.10
2017-08-01T00:13:32.121Z,2.67
2017-08-01T00:16:00.062Z,2.53
2017-08-01T00:18:28.367Z,2.40
2017-08-01T00:20:57.936Z,2.73
2017-08-01T00:23:29.798Z,2.43
2017-08-01T00:25:58.689Z,2.50
2017-08-01T00:28:27.639Z,2.43
2017-08-01T00:30:58.068Z,3.30
2017-08-01T00:33:26.842Z,3.97
2017-08-01T00:35:59.823Z,2.70
2017-08-01T00:38:27.546Z,2.40
2017-08-01T00:40:55.913Z,2.93
2017-08-01T00:43:25.162Z,3.23
2017-08-01T00:45:53.881Z,3.87
2017-08-01T00:48:25.171Z,3.20
2017-08-01T00:50:54.005Z,4.40
2017-08-01T00:53:23.452Z,2.80
2017-08-01T00:55:53.035Z,3.23
2017-08-01T00:58:20.286Z,3.40
2017-08-01T01:00:51.647Z,3.20
2017-08-01T01:03:21.318Z,3.53
2017-08-01T01:05:50.703Z,3.30
2017-08-01T01:08:19.647Z,4.00
2017-08-01T01:10:48.429Z,2.73
2017-08-01T01:13:16.806Z,2.80
2017-08-01T01:15:46.193Z,4.03
2017-08-01T01:18:14.887Z,3.20
2017-08-01T01:20:46.052Z,3.50
2017-08-01T01:23:14.787Z,3.20
2017-08-01T01:25:44.694Z,2.90
2017-08-01T01:28:14.626Z,3.57
2017-08-01T01:30:43.738Z,3.37
2017-08-01T01:33:13.218Z,4.30
2017-08-01T01:35:42.103Z,3.10
2017-08-01T01:38:09.311Z,3.37
2017-08-01T01:40:37.930Z,3.67
2017-08-01T01:43:06.831Z,3.73
2017-08-01T01:45:35.248Z,2.90
2017-08-01T01:48:01.911Z,3.60
2017-08-01T01:50:29.183Z,2.97
2017-08-01T01:52:55.792Z,4.07
2017-08-01T01:55:24.830Z,4.23
2017-08-01T01:57:52.109Z,3.23
2017-08-01T02:00:19.515Z,3.40
2017-08-01T02:02:50.211Z,3.43
2017-08-01T02:05:17.521Z,3.33
2017-08-01T02:07:48.007Z,3.50
2017-08-01T02:10:20.403Z,4.57
2017-08-01T02:12:48.042Z,3.83
2017-08-01T02:15:19.154Z,3.57
2017-08-01T02:17:49.288Z,3.30
2017-08-01T02:20:16.739Z,3.03
2017-08-01T02:22:44.832Z,3.87
2017-08-01T02:25:14.398Z,3.70
2017-08-01T02:27:43.892Z,4.33
2017-08-01T02:30:12.954Z,3.60
2017-08-01T02:32:39.625Z,4.00
2017-08-01T02:35:06.291Z,3.60
2017-08-01T02:37:32.908Z,4.33
2017-08-01T02:39:59.536Z,4.10
2017-08-01T02:42:26.172Z,4.60
2017-08-01T02:44:52.815Z,4.33
2017-08-01T02:47:19.430Z,4.17
2017-08-01T02:49:49.258Z,4.03
2017-08-01T02:52:15.927Z,3.80
2017-08-01T02:54:42.536Z,4.90
2017-08-01T02:57:09.462Z,4.00
2017-08-01T02:59:36.899Z,3.87
2017-08-01T03:02:04.963Z,4.27
2017-08-01T03:04:34.366Z,4.53
2017-08-01T03:07:02.675Z,3.90
2017-08-01T03:09:29.690Z,4.43
2017-08-01T03:12:00.299Z,3.80
2017-08-01T03:14:27.435Z,4.43
2017-08-01T03:16:56.354Z,3.70
2017-08-01T03:19:24.850Z,4.70
2017-08-01T03:21:54.284Z,4.10
2017-08-01T03:24:24.632Z,4.87
2017-08-01T03:26:53.463Z,4.30
2017-08-01T03:29:22.167Z,5.53
2017-08-01T03:31:52.027Z,4.57
2017-08-01T03:34:19.154Z,3.90
2017-08-01T03:36:47.686Z,4.50
2017-08-01T03:39:16.430Z,4.10
2017-08-01T03:41:44.370Z,5.47
2017-08-01T03:44:14.897Z,4.50
2017-08-01T03:46:43.945Z,4.80
2017-08-01T03:49:12.514Z,4.57
2017-08-01T03:51:41.110Z,4.50
2017-08-01T03:54:10.474Z,4.60
2017-08-01T03:56:39.354Z,4.43
2017-08-01T03:59:08.583Z,5.00
2017-08-01T04:01:36.972Z,4.80
2017-08-01T04:04:05.691Z,5.20
2017-08-01T04:06:33.430Z,4.50
2017-08-01T04:09:03.580Z,4.73
2017-08-01T04:11:32.016Z,5.17
2017-08-01T04:14:00.800Z,4.30
2017-08-01T04:16:28.647Z,5.37
2017-08-01T04:18:56.660Z,5.23
2017-08-01T04:21:26.604Z,4.37
2017-08-01T04:23:55.421Z,4.70
2017-08-01T04:26:24.683Z,4.43
2017-08-01T04:28:53.927Z,5.77
2017-08-01T04:31:22.676Z,4.80
2017-08-01T04:33:49.971Z,5.43
2017-08-01T04:36:21.959Z,6.47
2017-08-01T04:38:51.104Z,5.90
2017-08-01T04:41:18.596Z,4.43
2017-08-01T04:43:48.204Z,4.87
2017-08-01T04:46:18.965Z,4.90
2017-08-01T04:48:46.971Z,5.23
2017-08-01T04:51:14.111Z,4.90
2017-08-01T04:53:42.498Z,5.07
2017-08-01T04:56:11.987Z,4.67
2017-08-01T04:58:40.808Z,5.30
2017-08-01T05:01:10.020Z,5.03
2017-08-01T05:03:37.750Z,5.00
2017-08-01T05:06:07.689Z,4.83
2017-08-01T05:08:35.340Z,5.30
2017-08-01T05:11:04.227Z,4.97
2017-08-01T05:13:33.634Z,4.50
2017-08-01T05:16:01.683Z,5.30
2017-08-01T05:18:29.638Z,5.83
2017-08-01T05:20:58.591Z,5.53
2017-08-01T05:23:27.210Z,5.53
2017-08-01T05:25:56.497Z,6.90
2017-08-01T05:28:25.144Z,6.73
2017-08-01T05:30:53.041Z,5.50
2017-08-01T05:33:22.070Z,6.60
2017-08-01T05:35:50.117Z,6.67
2017-08-01T05:38:19.027Z,7.17
2017-08-01T05:40:47.090Z,6.90
2017-08-01T05:43:16.307Z,7.60
2017-08-01T05:45:45.835Z,6.87
2017-08-01T05:48:14.069Z,7.17
2017-08-01T05:50:42.410Z,7.50
2017-08-01T05:53:10.417Z,7.33
2017-08-01T05:55:40.096Z,7.10
2017-08-01T05:58:08.855Z,7.23
2017-08-01T06:00:41.947Z,7.10
2017-08-01T06:03:11.286Z,7.13
2017-08-01T06:05:40.743Z,7.17
2017-08-01T06:08:09.886Z,6.53
2017-08-01T06:10:40.137Z,6.30
2017-08-01T06:13:10.179Z,8.10
2017-08-01T06:15:39.960Z,7.33
2017-08-01T06:18:08.639Z,7.77
2017-08-01T06:20:37.434Z,7.37
2017-08-01T06:23:10.209Z,8.87
2017-08-01T06:25:38.175Z,7.30
2017-08-01T06:28:07.044Z,8.80
2017-08-01T06:30:38.398Z,8.17
2017-08-01T06:33:10.210Z,10.80
2017-08-01T06:35:38.688Z,8.60
2017-08-01T06:38:06.602Z,10.33
2017-08-01T06:40:34.491Z,10.77
2017-08-01T06:43:02.858Z,10.67
2017-08-01T06:45:32.969Z,8.70
2017-08-01T06:48:02.555Z,10.30
2017-08-01T06:50:34.953Z,9.07
2017-08-01T06:53:05.600Z,9.03
2017-08-01T06:55:33.988Z,10.20
2017-08-01T06:58:02.237Z,10.80
2017-08-01T07:00:33.582Z,10.10
2017-08-01T07:03:03.263Z,10.03
2017-08-01T07:05:32.196Z,10.27
2017-08-01T07:08:02.023Z,9.20
2017-08-01T07:10:32.139Z,9.80
2017-08-01T07:13:00.376Z,11.47
2017-08-01T07:15:28.864Z,9.80
2017-08-01T07:17:58.470Z,8.87
2017-08-01T07:20:25.744Z,11.07
2017-08-01T07:22:55.751Z,10.70
2017-08-01T07:25:27.544Z,10.47
2017-08-01T07:27:57.992Z,10.40
2017-08-01T07:30:27.517Z,11.30
2017-08-01T07:32:56.472Z,10.50
2017-08-01T07:35:26.047Z,10.27
2017-08-01T07:37:55.112Z,10.30
2017-08-01T07:40:25.119Z,9.40
2017-08-01T07:42:53.551Z,10.70
2017-08-01T07:45:22.103Z,9.43
2017-08-01T07:47:50.379Z,9.63
2017-08-01T07:50:18.433Z,8.53
2017-08-01T07:52:46.582Z,11.37
2017-08-01T07:55:16.030Z,10.03
2017-08-01T07:57:46.118Z,8.87
2017-08-01T08:00:14.910Z,10.67
2017-08-01T08:02:43.598Z,9.43
2017-08-01T08:05:12.594Z,9.90
2017-08-01T08:07:39.974Z,8.40
2017-08-01T08:10:08.047Z,8.23
2017-08-01T08:12:36.887Z,9.60
2017-08-01T08:15:05.112Z,9.20
2017-08-01T08:17:34.112Z,8.87
2017-08-01T08:20:03.137Z,8.30
2017-08-01T08:22:34.925Z,8.20
2017-08-01T08:25:03.163Z,9.07
2017-08-01T08:27:32.632Z,9.37
2017-08-01T08:30:00.382Z,9.17
2017-08-01T08:32:29.010Z,8.93
2017-08-01T08:34:58.807Z,9.60
2017-08-01T08:37:27.121Z,9.67
2017-08-01T08:39:55.295Z,9.20
2017-08-01T08:42:25.431Z,9.90
2017-08-01T08:44:54.768Z,8.97
2017-08-01T08:47:22.811Z,9.03
2017-08-01T08:49:51.270Z,9.53
2017-08-01T08:52:20.730Z,8.87
2017-08-01T08:54:49.523Z,9.40
2017-08-01T08:57:18.967Z,9.10
2017-08-01T08:59:47.784Z,9.60
2017-08-01T09:02:14.926Z,8.50
2017-08-01T09:04:43.699Z,8.30
2017-08-01T09:07:12.874Z,9.30
2017-08-01T09:09:41.248Z,7.33
2017-08-01T09:12:11.739Z,8.00
2017-08-01T09:14:39.583Z,8.83
2017-08-01T09:17:08.370Z,8.73
2017-08-01T09:19:36.396Z,8.40
2017-08-01T09:22:06.205Z,7.63
2017-08-01T09:24:35.728Z,8.37
2017-08-01T09:27:04.467Z,8.50
2017-08-01T09:29:33.593Z,7.63
2017-08-01T09:32:03.414Z,7.13
2017-08-01T09:34:32.609Z,7.97
2017-08-01T09:37:00.974Z,8.27
2017-08-01T09:39:29.682Z,8.37
2017-08-01T09:41:57.115Z,9.87
2017-08-01T09:44:25.604Z,9.10
2017-08-01T09:46:56.217Z,8.30
2017-08-01T09:49:24.348Z,10.10
2017-08-01T09:51:52.573Z,11.37
2017-08-01T09:54:20.491Z,9.83
2017-08-01T09:56:47.792Z,9.73
2017-08-01T09:59:16.120Z,8.77
2017-08-01T10:01:45.415Z,8.47
2017-08-01T10:04:13.688Z,8.23
2017-08-01T10:06:43.059Z,8.80
2017-08-01T10:09:13.312Z,9.17
2017-08-01T10:11:42.421Z,8.10
2017-08-01T10:14:12.494Z,9.53
2017-08-01T10:16:41.360Z,9.47
2017-08-01T10:19:11.187Z,9.30
2017-08-01T10:21:39.590Z,8.27
2017-08-01T10:24:08.909Z,10.90
2017-08-01T10:26:37.545Z,12.33
2017-08-01T10:29:06.692Z,11.33
2017-08-01T10:31:35.588Z,12.73
2017-08-01T10:34:04.029Z,13.37
2017-08-01T10:36:32.342Z,13.73
2017-08-01T10:39:00.959Z,13.17
2017-08-01T10:41:27.607Z,14.10
2017-08-01T10:43:54.243Z,12.10
2017-08-01T10:46:20.882Z,13.20
2017-08-01T10:48:47.543Z,14.57
2017-08-01T10:51:14.203Z,13.13
2017-08-01T10:53:40.856Z,12.13
2017-08-01T10:56:07.509Z,12.00
2017-08-01T10:58:34.159Z,12.30
2017-08-01T11:01:00.780Z,15.00
2017-08-01T11:03:27.672Z,12.80
2017-08-01T11:05:54.319Z,13.17
2017-08-01T11:08:20.939Z,13.67
2017-08-01T11:10:47.587Z,13.13
2017-08-01T11:13:14.218Z,13.47
2017-08-01T11:15:40.883Z,12.10
2017-08-01T11:18:07.499Z,13.00
2017-08-01T11:20:34.130Z,12.03
2017-08-01T11:23:00.787Z,11.67
2017-08-01T11:25:27.434Z,12.17
2017-08-01T11:27:54.067Z,12.90
2017-08-01T11:30:20.726Z,12.80
2017-08-01T11:32:48.359Z,13.33
2017-08-01T11:35:16.278Z,13.10
2017-08-01T11:37:42.963Z,14.37
2017-08-01T11:40:09.607Z,12.50
2017-08-01T11:42:36.260Z,13.40
2017-08-01T11:45:02.927Z,14.90
2017-08-01T11:47:29.571Z,13.40
2017-08-01T11:49:56.226Z,14.47
2017-08-01T11:52:22.880Z,13.37
2017-08-01T11:54:49.529Z,13.93
2017-08-01T11:57:16.172Z,14.47
2017-08-01T11:59:42.790Z,13.50
2017-08-01T12:02:09.470Z,13.40
2017-08-01T12:04:36.506Z,14.23
2017-08-01T12:07:07.770Z,13.27
2017-08-01T12:09:37.940Z,14.23
2017-08-01T12:12:06.083Z,14.73
2017-08-01T12:14:36.472Z,14.63
2017-08-01T12:17:06.107Z,15.37
2017-08-01T12:19:34.779Z,15.73
2017-08-01T12:22:03.547Z,15.50
2017-08-01T12:24:30.194Z,15.50
2017-08-01T12:26:56.858Z,15.53
2017-08-01T12:29:23.561Z,14.03
2017-08-01T12:31:50.232Z,13.90
2017-08-01T12:34:16.868Z,13.87
2017-08-01T12:36:43.652Z,18.77
2017-08-01T12:39:10.306Z,14.77
2017-08-01T12:41:36.939Z,15.00
2017-08-01T12:44:03.621Z,17.20
2017-08-01T12:46:30.290Z,16.40
2017-08-01T12:48:56.918Z,14.83
2017-08-01T12:51:23.561Z,15.97
2017-08-01T12:53:50.199Z,16.27
2017-08-01T12:56:16.839Z,16.13
2017-08-01T12:58:43.486Z,16.50
2017-08-01T13:01:10.091Z,14.47
2017-08-01T13:03:36.740Z,15.27
2017-08-01T13:06:03.378Z,16.60
2017-08-01T13:08:30.031Z,15.93
2017-08-01T13:10:56.644Z,17.87
2017-08-01T13:13:23.296Z,15.67
2017-08-01T13:15:49.957Z,17.40
2017-08-01T13:18:16.606Z,15.47
2017-08-01T13:20:43.242Z,15.83
2017-08-01T13:23:09.879Z,14.13
2017-08-01T13:25:36.581Z,14.27
2017-08-01T13:28:03.212Z,15.40
2017-08-01T13:30:29.836Z,15.90
2017-08-01T13:32:56.480Z,18.20
2017-08-01T13:35:23.098Z,15.80
2017-08-01T13:37:49.762Z,16.50
2017-08-01T13:40:16.389Z,14.80
2017-08-01T13:42:43.042Z,16.40
2017-08-01T13:45:09.689Z,16.13
2017-08-01T13:47:36.312Z,16.03
2017-08-01T13:50:02.943Z,20.10
2017-08-01T13:52:29.615Z,16.30
2017-08-01T13:54:56.252Z,17.23
2017-08-01T13:57:22.895Z,15.57
2017-08-01T13:59:49.617Z,14.77
2017-08-01T14:02:16.255Z,16.90
2017-08-01T14:04:42.899Z,15.57
2017-08-01T14:07:09.535Z,16.33
2017-08-01T14:09:36.188Z,16.60
2017-08-01T14:12:02.821Z,14.70
2017-08-01T14:14:29.469Z,16.50
2017-08-01T14:16:56.111Z,16.13
2017-08-01T14:19:22.748Z,14.80
2017-08-01T14:21:49.509Z,14.90
2017-08-01T14:24:16.171Z,14.83
2017-08-01T14:26:42.791Z,16.07
2017-08-01T14:29:09.457Z,14.87
2017-08-01T14:31:36.732Z,16.33
2017-08-01T14:34:03.374Z,15.00
2017-08-01T14:36:30.021Z,14.90
2017-08-01T14:38:56.660Z,15.07
2017-08-01T14:41:23.309Z,15.63
2017-08-01T14:43:49.976Z,15.03
2017-08-01T14:46:16.596Z,15.70
2017-08-01T14:48:43.244Z,14.57
2017-08-01T14:51:09.867Z,16.57
2017-08-01T14:53:36.516Z,16.40
2017-08-01T14:56:03.156Z,15.70
2017-08-01T14:58:29.775Z,16.70
2017-08-01T15:00:56.419Z,16.03
2017-08-01T15:03:23.061Z,16.53
2017-08-01T15:05:49.707Z,16.77
2017-08-01T15:08:16.357Z,16.47
2017-08-01T15:10:42.985Z,16.00
2017-08-01T15:13:09.628Z,14.27
2017-08-01T15:15:36.277Z,15.00
2017-08-01T15:18:02.908Z,16.47
2017-08-01T15:20:29.798Z,15.67
2017-08-01T15:22:56.456Z,14.50
2017-08-01T15:25:23.127Z,15.40
2017-08-01T15:27:49.760Z,15.90
2017-08-01T15:30:16.407Z,19.20
2017-08-01T15:32:43.055Z,17.70
2017-08-01T15:35:09.696Z,18.40
2017-08-01T15:37:36.329Z,16.77
2017-08-01T15:40:02.971Z,18.47
2017-08-01T15:42:29.640Z,16.90
2017-08-01T15:44:56.312Z,16.80
2017-08-01T15:47:22.921Z,16.37
2017-08-01T15:49:49.560Z,17.07
2017-08-01T15:52:17.658Z,17.80
2017-08-01T15:54:44.309Z,14.53
2017-08-01T15:57:10.980Z,13.70
2017-08-01T15:59:37.643Z,13.37
2017-08-01T16:02:04.816Z,10.77
2017-08-01T16:04:31.465Z,10.60
2017-08-01T16:06:58.120Z,11.57
2017-08-01T16:09:24.780Z,10.07
2017-08-01T16:11:51.421Z,9.70
2017-08-01T16:14:18.030Z,9.20
2017-08-01T16:16:44.687Z,8.43
2017-08-01T16:19:11.333Z,7.40
2017-08-01T16:21:37.992Z,6.67
2017-08-01T16:24:04.643Z,8.03
2017-08-01T16:26:31.275Z,5.63
2017-08-01T16:28:57.905Z,6.00
2017-08-01T16:31:24.556Z,5.90
2017-08-01T16:33:51.217Z,5.00
2017-08-01T16:36:17.883Z,4.80
2017-08-01T16:38:44.512Z,4.90
2017-08-01T16:41:11.164Z,6.20
2017-08-01T16:43:37.788Z,4.53
2017-08-01T16:46:04.427Z,5.77
2017-08-01T16:48:31.055Z,5.03
2017-08-01T16:50:57.823Z,5.97
2017-08-01T16:53:24.463Z,5.47
2017-08-01T16:55:51.110Z,4.67
2017-08-01T16:58:17.764Z,5.63
2017-08-01T17:00:44.371Z,4.83
2017-08-01T17:03:10.995Z,5.13
2017-08-01T17:05:37.643Z,4.47
2017-08-01T17:08:04.308Z,5.27
2017-08-01T17:10:30.931Z,6.50
2017-08-01T17:12:57.579Z,4.77
2017-08-01T17:15:24.227Z,5.17
2017-08-01T17:17:50.863Z,4.20
2017-08-01T17:20:17.495Z,5.03
2017-08-01T17:22:44.151Z,5.07
2017-08-01T17:25:10.775Z,5.40
2017-08-01T17:27:37.409Z,6.53
2017-08-01T17:30:04.047Z,5.20
2017-08-01T17:32:30.681Z,5.60
2017-08-01T17:34:57.317Z,5.67
2017-08-01T17:37:23.949Z,6.43
2017-08-01T17:39:50.592Z,6.60
2017-08-01T17:42:17.243Z,5.10
2017-08-01T17:44:43.895Z,5.60
2017-08-01T17:47:10.521Z,6.50
2017-08-01T17:49:37.161Z,6.00
2017-08-01T17:52:03.811Z,8.47
2017-08-01T17:54:30.446Z,7.20
2017-08-01T17:56:57.094Z,8.63
2017-08-01T17:59:23.724Z,6.20
2017-08-01T18:01:50.393Z,7.43
2017-08-01T18:04:17.038Z,7.33
2017-08-01T18:06:43.658Z,8.00
2017-08-01T18:09:10.290Z,8.40
2017-08-01T18:11:36.951Z,7.07
2017-08-01T18:14:03.615Z,7.50
2017-08-01T18:16:30.223Z,7.67
2017-08-01T18:18:57.049Z,7.50
2017-08-01T18:21:23.914Z,7.03
2017-08-01T18:23:50.578Z,7.70
2017-08-01T18:26:18.492Z,7.40
2017-08-01T18:28:45.876Z,8.73
2017-08-01T18:31:12.579Z,8.70
2017-08-01T18:33:39.273Z,10.87
2017-08-01T18:36:06.237Z,11.60
2017-08-01T18:38:32.877Z,11.73
2017-08-01T18:41:01.079Z,13.57
2017-08-01T18:43:27.932Z,12.70
2017-08-01T18:45:54.632Z,12.37
2017-08-01T18:48:21.372Z,14.37
2017-08-01T18:50:48.256Z,13.03
2017-08-01T18:53:14.938Z,13.47
2017-08-01T18:55:41.843Z,14.57
2017-08-01T18:58:08.533Z,13.97
2017-08-01T19:00:35.430Z,12.80
2017-08-01T19:05:39.630Z,11.30
2017-08-01T19:08:09.134Z,10.97
2017-08-01T19:10:37.049Z,7.53
2017-08-01T19:13:03.952Z,7.53
2017-08-01T19:15:30.628Z,7.40
2017-08-01T19:17:57.306Z,5.63
2017-08-01T19:20:24.199Z,7.33
2017-08-01T19:22:51.159Z,6.23
2017-08-01T19:25:18.541Z,6.50
2017-08-01T19:27:46.626Z,5.80
2017-08-01T19:30:14.688Z,6.33
2017-08-01T19:32:42.634Z,7.43
2017-08-01T19:35:10.260Z,7.00
2017-08-01T19:37:43.365Z,6.37
2017-08-01T19:40:11.659Z,7.40
2017-08-01T19:42:39.900Z,6.90
2017-08-01T19:45:08.453Z,7.90
2017-08-01T19:47:39.564Z,5.90
2017-08-01T19:50:10.769Z,7.70
2017-08-01T19:52:38.165Z,8.80
2017-08-01T19:55:06.902Z,7.90
2017-08-01T19:57:36.150Z,9.37
2017-08-01T20:00:05.852Z,8.30
2017-08-01T20:02:34.974Z,8.17
2017-08-01T20:05:03.632Z,8.83
2017-08-01T20:07:32.375Z,9.93
2017-08-01T20:10:01.731Z,10.03
2017-08-01T20:12:32.372Z,9.30
2017-08-01T20:15:01.238Z,9.27
2017-08-01T20:17:31.749Z,11.40
2017-08-01T20:20:00.344Z,9.60
2017-08-01T20:22:29.032Z,9.00
2017-08-01T20:24:57.531Z,8.07
2017-08-01T20:27:26.050Z,8.57
2017-08-01T20:29:55.885Z,9.23
2017-08-01T20:32:23.833Z,9.47
2017-08-01T20:34:52.242Z,9.50
2017-08-01T20:37:21.282Z,8.63
2017-08-01T20:39:50.170Z,8.03
2017-08-01T20:42:17.809Z,8.90
2017-08-01T20:44:45.947Z,9.33
2017-08-01T20:47:14.535Z,7.90
2017-08-01T20:49:43.847Z,7.73
2017-08-01T20:52:15.079Z,10.13
2017-08-01T20:54:44.697Z,9.30
2017-08-01T20:57:13.594Z,10.50
2017-08-01T20:59:43.595Z,9.30
2017-08-01T21:02:11.591Z,10.10
2017-08-01T21:04:40.714Z,9.13
2017-08-01T21:07:10.155Z,8.87
2017-08-01T21:09:38.248Z,9.03
2017-08-01T21:12:06.755Z,9.50
2017-08-01T21:14:36.367Z,9.53
2017-08-01T21:17:04.791Z,8.63
2017-08-01T21:19:34.757Z,10.27
2017-08-01T21:22:04.529Z,8.23
2017-08-01T21:24:33.500Z,8.07
2017-08-01T21:27:03.099Z,8.23
2017-08-01T21:29:31.213Z,10.13
2017-08-01T21:32:00.856Z,9.77
2017-08-01T21:34:29.646Z,9.17
2017-08-01T21:36:57.681Z,9.03
2017-08-01T21:39:27.775Z,9.40
2017-08-01T21:41:56.712Z,6.90
2017-08-01T21:44:26.982Z,8.87
2017-08-01T21:46:58.297Z,9.17
2017-08-01T21:49:29.820Z,7.10
2017-08-01T21:51:59.356Z,8.70
2017-08-01T21:54:32.119Z,10.30
2017-08-01T21:57:00.213Z,8.93
2017-08-01T21:59:29.517Z,8.70
2017-08-01T22:01:57.426Z,9.30
2017-08-01T22:04:27.190Z,8.40
2017-08-01T22:06:56.183Z,9.80
2017-08-01T22:09:28.039Z,8.70
2017-08-01T22:11:56.971Z,8.50
2017-08-01T22:14:25.799Z,7.70
2017-08-01T22:16:53.596Z,7.93
2017-08-01T22:19:22.502Z,8.30
2017-08-01T22:21:51.353Z,9.10
2017-08-01T22:24:20.593Z,7.53
2017-08-01T22:26:49.477Z,7.13
2017-08-01T22:29:19.403Z,8.00
2017-08-01T22:31:48.167Z,8.33
2017-08-01T22:34:18.234Z,7.47
2017-08-01T22:36:46.386Z,5.80
2017-08-01T22:39:14.595Z,5.37
2017-08-01T22:41:43.253Z,7.37
2017-08-01T22:44:13.093Z,7.90
2017-08-01T22:46:43.044Z,6.67
2017-08-01T22:49:11.594Z,9.53
2017-08-01T22:51:40.222Z,8.30
2017-08-01T22:54:08.884Z,10.20
2017-08-01T22:56:37.238Z,10.80
2017-08-01T22:59:05.109Z,6.40
2017-08-01T23:01:33.958Z,6.13
2017-08-01T23:04:03.180Z,7.33
2017-08-01T23:06:31.935Z,6.30
2017-08-01T23:09:00.400Z,8.57
2017-08-01T23:11:32.292Z,8.63
2017-08-01T23:14:01.078Z,7.03
2017-08-01T23:16:31.327Z,8.50
2017-08-01T23:19:00.111Z,8.77
2017-08-01T23:21:29.491Z,7.73
2017-08-01T23:23:59.651Z,8.50
2017-08-01T23:26:30.032Z,8.30
2017-08-01T23:28:59.407Z,6.80
2017-08-01T23:31:27.639Z,7.37
2017-08-01T23:33:56.588Z,5.83
2017-08-01T23:36:25.606Z,6.00
2017-08-01T23:38:55.455Z,7.17
2017-08-01T23:41:24.171Z,8.97
2017-08-01T23:43:54.421Z,9.10
2017-08-01T23:46:24.048Z,8.93
2017-08-01T23:48:53.945Z,10.50
2017-08-01T23:51:22.726Z,10.00
2017-08-01T23:53:51.559Z,11.80
2017-08-01T23:56:19.888Z,9.43
2017-08-01T23:58:48.786Z,7.63
